Terminal Aerodrome Forecast
Issued by NWS Wilmington, OH

Current Version | Previous Version | Graphics & Text | Print | Product List | Glossary On
Versions: 1 2 3 4 5 6 7 8 9 10 11 12 13 14 15
926
FTUS41 KILN 041911 AAA
TAFDAY
TAF AMD
KDAY 041911Z 0419/0518 29010KT P6SM VCSH OVC035
      TEMPO 0419/0421 4SM -SN OVC025
     FM042300 28007KT P6SM SCT025
     FM050200 26006KT P6SM SKC
     FM051300 23008KT P6SM BKN150=

USA.gov is the U.S. government's official web portal to all federal, state and local government web resources and services.